createdAt,value
2023-02-19T00:01:49.534Z,4.80
2023-02-19T00:04:22.574Z,4.40
2023-02-19T00:06:50.495Z,4.60
2023-02-19T00:09:19.784Z,5.00
2023-02-19T00:11:47.989Z,4.60
2023-02-19T00:14:18.511Z,4.60
2023-02-19T00:16:46.146Z,4.60
2023-02-19T00:19:16.178Z,5.50
2023-02-19T00:21:43.410Z,5.20
2023-02-19T00:24:13.430Z,4.70
2023-02-19T00:26:41.668Z,4.80
2023-02-19T00:29:13.302Z,5.10
2023-02-19T00:31:42.178Z,4.90
2023-02-19T00:34:10.504Z,5.20
2023-02-19T00:36:39.668Z,4.20
2023-02-19T00:39:07.964Z,4.90
2023-02-19T00:41:35.149Z,5.30
2023-02-19T00:44:08.112Z,5.50
2023-02-19T00:46:36.639Z,4.40
2023-02-19T00:49:05.128Z,4.10
2023-02-19T00:51:37.795Z,5.00
2023-02-19T00:54:06.507Z,4.00
2023-02-19T00:56:34.005Z,4.20
2023-02-19T00:59:01.129Z,3.70
2023-02-19T01:01:28.146Z,4.20
2023-02-19T01:03:55.171Z,3.70
2023-02-19T01:06:22.302Z,3.80
2023-02-19T01:08:49.550Z,4.20
2023-02-19T01:11:18.113Z,4.10
2023-02-19T01:13:45.286Z,3.90
2023-02-19T01:16:20.598Z,3.30
2023-02-19T01:18:49.050Z,4.40
2023-02-19T01:21:24.180Z,4.20
2023-02-19T01:23:57.696Z,3.40
2023-02-19T01:26:29.019Z,3.50
2023-02-19T01:31:24.561Z,3.30
2023-02-19T01:33:54.907Z,4.20
2023-02-19T01:36:21.943Z,4.60
2023-02-19T01:38:50.049Z,4.00
2023-02-19T01:41:19.985Z,4.80
2023-02-19T01:46:42.843Z,4.30
2023-02-19T01:49:40.146Z,3.70
2023-02-19T01:52:27.454Z,4.00
2023-02-19T01:54:56.534Z,3.90
2023-02-19T01:57:30.643Z,4.10
2023-02-19T02:00:04.586Z,4.20
2023-02-19T02:02:41.489Z,4.00
2023-02-19T02:05:23.200Z,3.20
2023-02-19T02:08:09.073Z,3.40
2023-02-19T02:10:36.984Z,3.90
2023-02-19T02:13:03.903Z,3.40
2023-02-19T02:15:43.979Z,3.10
2023-02-19T02:18:34.836Z,3.80
2023-02-19T02:21:11.973Z,3.80
2023-02-19T02:23:47.025Z,3.80
2023-02-19T02:26:20.415Z,3.60
2023-02-19T02:29:01.221Z,4.20
2023-02-19T02:31:43.966Z,3.60
2023-02-19T02:34:21.140Z,3.70
2023-02-19T02:36:55.486Z,3.40
2023-02-19T02:39:25.756Z,3.70
2023-02-19T02:42:16.599Z,3.80
2023-02-19T02:45:03.521Z,4.30
2023-02-19T02:47:44.999Z,3.50
2023-02-19T02:50:22.573Z,4.10
2023-02-19T02:53:14.367Z,4.30
2023-02-19T02:55:44.631Z,4.00
2023-02-19T02:58:13.419Z,4.20
2023-02-19T03:01:04.812Z,4.00
2023-02-19T03:03:32.903Z,4.20
2023-02-19T03:06:06.899Z,4.80
2023-02-19T03:08:53.521Z,4.90
2023-02-19T03:11:39.803Z,4.80
2023-02-19T03:14:38.681Z,4.80
2023-02-19T03:19:42.406Z,4.80
2023-02-19T03:22:17.866Z,4.60
2023-02-19T03:25:11.070Z,5.20
2023-02-19T03:27:41.241Z,5.40
2023-02-19T03:30:19.237Z,4.90
2023-02-19T03:32:53.965Z,4.80
2023-02-19T03:35:24.777Z,5.30
2023-02-19T03:38:13.611Z,5.10
2023-02-19T03:40:53.000Z,5.10
2023-02-19T03:43:44.002Z,4.60
2023-02-19T03:46:35.706Z,4.90
2023-02-19T03:49:13.305Z,5.80
2023-02-19T03:51:46.061Z,4.90
2023-02-19T03:54:21.636Z,4.90
2023-02-19T03:57:03.713Z,4.50
2023-02-19T03:59:57.494Z,4.50
2023-02-19T04:02:34.161Z,4.10
2023-02-19T04:05:11.324Z,4.60
2023-02-19T04:07:44.945Z,4.00
2023-02-19T04:10:14.539Z,3.80
2023-02-19T04:12:50.447Z,5.50
2023-02-19T04:15:22.476Z,4.00
2023-02-19T04:17:58.551Z,3.90
2023-02-19T04:20:30.091Z,3.80
2023-02-19T04:22:58.091Z,4.00
2023-02-19T04:25:27.484Z,3.80
2023-02-19T04:27:55.084Z,3.50
2023-02-19T04:30:22.458Z,3.40
2023-02-19T04:32:49.433Z,3.90
2023-02-19T04:35:16.635Z,3.60
2023-02-19T04:37:43.601Z,4.10
2023-02-19T04:40:11.021Z,4.00
2023-02-19T04:42:38.057Z,3.80
2023-02-19T04:45:05.147Z,3.40
2023-02-19T04:47:33.314Z,3.80
2023-02-19T04:50:00.190Z,3.80
2023-02-19T04:52:27.017Z,3.90
2023-02-19T04:54:53.776Z,3.90
2023-02-19T04:57:20.795Z,3.80
2023-02-19T04:59:47.704Z,2.90
2023-02-19T05:02:14.510Z,3.30
2023-02-19T05:04:41.736Z,3.30
2023-02-19T05:07:08.909Z,3.20
2023-02-19T05:09:35.846Z,3.40
2023-02-19T05:12:02.688Z,3.20
2023-02-19T05:14:29.619Z,4.00
2023-02-19T05:16:56.461Z,3.10
2023-02-19T05:19:23.375Z,3.50
2023-02-19T05:21:50.253Z,3.10
2023-02-19T05:24:17.131Z,3.80
2023-02-19T05:26:45.421Z,5.10
2023-02-19T05:29:12.456Z,3.90
2023-02-19T05:31:39.538Z,3.20
2023-02-19T05:34:06.589Z,3.50
2023-02-19T05:36:34.053Z,3.60
2023-02-19T05:39:00.978Z,3.90
2023-02-19T05:41:30.189Z,3.90
2023-02-19T05:43:57.936Z,4.30
2023-02-19T05:46:29.439Z,3.50
2023-02-19T05:48:56.787Z,4.00
2023-02-19T05:51:25.583Z,4.10
2023-02-19T05:53:52.766Z,3.90
2023-02-19T05:56:40.857Z,3.80
2023-02-19T05:59:19.797Z,4.20
2023-02-19T06:01:48.372Z,4.10
2023-02-19T06:04:15.876Z,5.30
2023-02-19T06:06:43.044Z,4.10
2023-02-19T06:09:11.151Z,3.80
2023-02-19T06:11:38.775Z,4.30
2023-02-19T06:14:06.461Z,3.60
2023-02-19T06:16:34.580Z,4.00
2023-02-19T06:19:05.287Z,4.20
2023-02-19T06:21:32.172Z,3.60
2023-02-19T06:23:59.220Z,4.50
2023-02-19T06:26:26.174Z,4.20
2023-02-19T06:28:54.319Z,4.50
2023-02-19T06:31:23.009Z,4.70
2023-02-19T06:33:51.059Z,4.20
2023-02-19T06:36:20.321Z,4.60
2023-02-19T06:38:47.511Z,5.80
2023-02-19T06:41:14.982Z,4.70
2023-02-19T06:43:42.462Z,5.80
2023-02-19T06:46:11.966Z,5.60
2023-02-19T06:48:40.060Z,5.10
2023-02-19T06:51:07.723Z,5.30
2023-02-19T06:53:34.604Z,5.10
2023-02-19T06:56:27.029Z,5.20
2023-02-19T06:58:55.948Z,5.70
2023-02-19T07:01:26.749Z,5.70
2023-02-19T07:03:53.867Z,5.50
2023-02-19T07:06:22.575Z,5.70
2023-02-19T07:08:50.804Z,5.90
2023-02-19T07:11:18.832Z,6.10
2023-02-19T07:13:45.857Z,6.20
2023-02-19T07:16:13.586Z,6.10
2023-02-19T07:18:41.121Z,6.60
2023-02-19T07:21:11.878Z,5.90
2023-02-19T07:23:39.550Z,7.10
2023-02-19T07:26:09.906Z,6.80
2023-02-19T07:28:36.751Z,7.30
2023-02-19T07:31:04.759Z,5.80
2023-02-19T07:33:31.653Z,6.00
2023-02-19T07:35:58.544Z,5.50
2023-02-19T07:38:26.609Z,5.80
2023-02-19T07:40:55.348Z,6.10
2023-02-19T07:43:23.737Z,5.50
2023-02-19T07:45:51.258Z,5.60
2023-02-19T07:48:18.974Z,5.80
2023-02-19T07:50:52.752Z,6.10
2023-02-19T07:53:20.231Z,5.40
2023-02-19T07:55:47.053Z,5.90
2023-02-19T07:58:16.794Z,6.60
2023-02-19T08:00:44.052Z,6.20
2023-02-19T08:03:11.061Z,5.20
2023-02-19T08:05:40.852Z,7.00
2023-02-19T08:08:10.172Z,5.40
2023-02-19T08:10:55.928Z,6.10
2023-02-19T08:13:23.004Z,6.40
2023-02-19T08:16:16.983Z,6.50
2023-02-19T08:18:48.384Z,5.90
2023-02-19T08:21:18.312Z,5.90
2023-02-19T08:26:13.697Z,6.00
2023-02-19T08:28:41.088Z,6.00
2023-02-19T08:31:09.915Z,7.00
2023-02-19T08:33:37.859Z,6.80
2023-02-19T08:36:07.858Z,6.90
2023-02-19T08:38:36.736Z,6.70
2023-02-19T08:41:08.434Z,5.70
2023-02-19T08:43:36.221Z,6.60
2023-02-19T08:46:03.837Z,6.80
2023-02-19T08:48:30.775Z,6.30
2023-02-19T08:51:04.218Z,6.60
2023-02-19T08:53:32.418Z,6.90
2023-02-19T08:55:59.357Z,8.10
2023-02-19T08:58:26.519Z,7.00
2023-02-19T09:00:53.600Z,6.00
2023-02-19T09:03:20.535Z,6.70
2023-02-19T09:05:47.652Z,7.00
2023-02-19T09:08:16.058Z,6.80
2023-02-19T09:10:43.089Z,6.10
2023-02-19T09:13:10.125Z,7.10
2023-02-19T09:15:40.111Z,7.00
2023-02-19T09:20:33.666Z,6.90
2023-02-19T09:23:01.110Z,6.70
2023-02-19T09:25:28.025Z,7.10
2023-02-19T09:27:56.536Z,6.30
2023-02-19T09:30:23.615Z,5.90
2023-02-19T09:32:50.884Z,6.40
2023-02-19T09:35:17.874Z,5.90
2023-02-19T09:37:44.896Z,5.90
2023-02-19T09:40:12.209Z,6.00
2023-02-19T09:42:43.146Z,6.90
2023-02-19T09:45:16.824Z,6.60
2023-02-19T09:47:43.688Z,6.10
2023-02-19T09:50:15.023Z,6.40
2023-02-19T09:52:52.173Z,5.60
2023-02-19T09:55:36.792Z,5.60
2023-02-19T09:58:25.878Z,5.60
2023-02-19T10:00:55.852Z,5.20
2023-02-19T10:06:02.090Z,6.40
2023-02-19T10:08:32.524Z,4.70
2023-02-19T10:11:02.996Z,5.50
2023-02-19T10:13:35.293Z,5.10
2023-02-19T10:16:05.231Z,4.50
2023-02-19T10:21:03.145Z,3.90
2023-02-19T10:23:30.688Z,3.90
2023-02-19T10:25:59.387Z,5.20
2023-02-19T10:28:30.424Z,4.40
2023-02-19T10:31:00.810Z,4.30
2023-02-19T10:33:28.417Z,4.50
2023-02-19T10:35:55.779Z,4.50
2023-02-19T10:38:29.692Z,4.30
2023-02-19T10:41:27.663Z,4.40
2023-02-19T10:43:56.662Z,4.90
2023-02-19T10:46:28.032Z,5.10
2023-02-19T10:49:03.934Z,4.10
2023-02-19T10:51:42.016Z,4.90
2023-02-19T10:54:26.693Z,5.00
2023-02-19T10:56:54.373Z,4.80
2023-02-19T10:59:30.127Z,5.60
2023-02-19T11:02:03.076Z,4.70
2023-02-19T11:04:38.197Z,4.40
2023-02-19T11:07:15.231Z,4.60
2023-02-19T11:09:45.677Z,4.00
2023-02-19T11:12:25.602Z,4.30
2023-02-19T11:17:28.517Z,4.70
2023-02-19T11:19:58.737Z,4.60
2023-02-19T11:22:40.414Z,5.20
2023-02-19T11:25:10.038Z,4.60
2023-02-19T11:28:07.489Z,5.40
2023-02-19T11:30:38.838Z,4.40
2023-02-19T11:33:19.995Z,5.40
2023-02-19T11:35:48.696Z,5.20
2023-02-19T11:38:19.544Z,5.00
2023-02-19T11:41:03.384Z,3.90
2023-02-19T11:43:36.466Z,4.20
2023-02-19T11:46:21.344Z,4.50
2023-02-19T11:49:06.826Z,3.90
2023-02-19T11:52:02.100Z,3.70
2023-02-19T11:54:53.403Z,3.80
2023-02-19T11:57:47.922Z,4.20
2023-02-19T12:00:19.066Z,3.70
2023-02-19T12:03:17.904Z,4.10
2023-02-19T12:06:16.161Z,4.50
2023-02-19T12:09:02.711Z,4.30
2023-02-19T12:11:47.835Z,4.70
2023-02-19T12:14:17.539Z,4.40
2023-02-19T12:16:50.528Z,4.10
2023-02-19T12:19:20.443Z,4.00
2023-02-19T12:24:35.537Z,3.70
2023-02-19T12:27:27.246Z,3.70
2023-02-19T12:30:37.951Z,4.00
2023-02-19T12:33:18.662Z,3.80
2023-02-19T12:36:01.963Z,3.80
2023-02-19T12:38:39.770Z,3.20
2023-02-19T12:41:10.553Z,4.10
2023-02-19T12:43:41.279Z,4.60
2023-02-19T12:46:21.719Z,4.70
2023-02-19T12:49:11.319Z,3.80
2023-02-19T12:51:40.974Z,3.70
2023-02-19T12:54:17.706Z,3.90
2023-02-19T12:56:52.793Z,3.50
2023-02-19T12:59:30.850Z,3.60
2023-02-19T13:01:59.998Z,3.50
2023-02-19T13:05:02.354Z,2.90
2023-02-19T13:07:38.747Z,3.40
2023-02-19T13:10:22.690Z,3.70
2023-02-19T13:12:51.747Z,3.00
2023-02-19T13:15:31.873Z,3.10
2023-02-19T13:18:01.632Z,3.30
2023-02-19T13:20:34.290Z,3.40
2023-02-19T13:23:28.959Z,2.80
2023-02-19T13:26:11.868Z,3.80
2023-02-19T13:29:16.094Z,3.40
2023-02-19T13:32:20.576Z,2.60
2023-02-19T13:34:59.304Z,3.40
2023-02-19T13:37:27.092Z,2.90
2023-02-19T13:39:57.842Z,2.90
2023-02-19T13:42:36.559Z,3.00
2023-02-19T13:45:06.683Z,3.10
2023-02-19T13:47:56.328Z,3.10
2023-02-19T13:50:26.656Z,3.60
2023-02-19T13:52:55.567Z,3.80
2023-02-19T13:55:48.756Z,3.30
2023-02-19T13:58:40.147Z,4.20
2023-02-19T14:01:10.026Z,3.90
2023-02-19T14:03:46.852Z,3.10
2023-02-19T14:06:14.600Z,3.50
2023-02-19T14:09:00.590Z,3.20
2023-02-19T14:11:42.508Z,3.00
2023-02-19T14:14:35.648Z,3.80
2023-02-19T14:17:24.186Z,3.40
2023-02-19T14:19:50.977Z,3.40
2023-02-19T14:22:50.410Z,3.50
2023-02-19T14:25:38.566Z,4.30
2023-02-19T14:28:30.993Z,3.90
2023-02-19T14:31:01.332Z,2.80
2023-02-19T14:33:40.450Z,3.60
2023-02-19T14:36:27.848Z,4.10
2023-02-19T14:38:58.475Z,3.00
2023-02-19T14:41:28.942Z,4.10
2023-02-19T14:43:57.738Z,3.40
2023-02-19T14:46:49.315Z,3.60
2023-02-19T14:49:51.641Z,4.40
2023-02-19T14:52:40.420Z,3.70
2023-02-19T14:55:19.975Z,3.60
2023-02-19T14:57:49.678Z,4.40
2023-02-19T15:00:22.792Z,5.20
2023-02-19T15:02:51.482Z,4.10
2023-02-19T15:05:23.647Z,4.60
2023-02-19T15:07:52.918Z,4.30
2023-02-19T15:10:20.384Z,4.50
2023-02-19T15:13:06.769Z,3.80
2023-02-19T15:15:41.022Z,3.40
2023-02-19T15:18:09.115Z,3.80
2023-02-19T15:20:38.237Z,3.80
2023-02-19T15:23:07.588Z,4.30
2023-02-19T15:25:38.302Z,3.90
2023-02-19T15:28:26.567Z,3.00
2023-02-19T15:30:59.705Z,3.30
2023-02-19T15:33:28.038Z,3.10
2023-02-19T15:35:58.490Z,3.00
2023-02-19T15:38:26.130Z,3.00
2023-02-19T15:40:56.298Z,3.50
2023-02-19T15:44:16.482Z,4.10
2023-02-19T15:46:45.315Z,3.70
2023-02-19T15:49:21.548Z,3.50
2023-02-19T15:51:59.299Z,3.40
2023-02-19T15:54:30.775Z,3.90
2023-02-19T15:57:05.277Z,3.70
2023-02-19T15:59:58.580Z,3.80
2023-02-19T16:02:27.611Z,3.70
2023-02-19T16:04:55.066Z,3.40
2023-02-19T16:07:34.979Z,3.30
2023-02-19T16:12:34.387Z,2.60
2023-02-19T16:15:12.440Z,2.60
2023-02-19T16:17:43.504Z,2.80
2023-02-19T16:20:39.890Z,2.60
2023-02-19T16:23:16.319Z,3.20
2023-02-19T16:25:46.458Z,2.40
2023-02-19T16:28:21.426Z,2.90
2023-02-19T16:31:00.466Z,3.90
2023-02-19T16:33:48.666Z,3.50
2023-02-19T16:36:35.283Z,3.90
2023-02-19T16:39:08.471Z,3.40
2023-02-19T16:41:47.800Z,4.00
2023-02-19T16:44:20.962Z,4.20
2023-02-19T16:46:49.997Z,4.10
2023-02-19T16:49:17.293Z,5.40
2023-02-19T16:51:46.125Z,5.30
2023-02-19T16:54:13.200Z,4.50
2023-02-19T16:56:40.241Z,4.70
2023-02-19T16:59:08.116Z,5.30
2023-02-19T17:01:37.157Z,4.10
2023-02-19T17:04:08.529Z,4.10
2023-02-19T17:06:38.279Z,4.20
2023-02-19T17:09:07.281Z,4.60
2023-02-19T17:11:35.249Z,5.20
2023-02-19T17:14:03.142Z,4.40
2023-02-19T17:16:39.908Z,4.60
2023-02-19T17:19:14.936Z,4.90
2023-02-19T17:21:42.818Z,4.70
2023-02-19T17:24:09.754Z,4.50
2023-02-19T17:26:36.726Z,4.50
2023-02-19T17:29:06.726Z,4.40
2023-02-19T17:31:34.357Z,4.30
2023-02-19T17:34:01.671Z,5.10
2023-02-19T17:36:30.993Z,3.50
2023-02-19T17:39:02.680Z,2.80
2023-02-19T17:41:30.135Z,3.10
2023-02-19T17:43:57.024Z,3.30
2023-02-19T17:46:26.760Z,3.70
2023-02-19T17:48:54.761Z,3.10
2023-02-19T17:51:22.303Z,3.80
2023-02-19T17:53:49.442Z,4.50
2023-02-19T17:56:22.803Z,5.20
2023-02-19T17:58:49.831Z,5.20
2023-02-19T18:01:16.957Z,5.30
2023-02-19T18:03:44.756Z,5.90
2023-02-19T18:06:12.467Z,4.60
2023-02-19T18:08:39.779Z,4.50
2023-02-19T18:11:08.239Z,4.90
2023-02-19T18:13:35.498Z,4.60
2023-02-19T18:16:02.688Z,4.60
2023-02-19T18:18:30.759Z,5.20
2023-02-19T18:20:57.988Z,6.10
2023-02-19T18:23:24.862Z,4.60
2023-02-19T18:25:52.189Z,4.10
2023-02-19T18:28:19.200Z,4.90
2023-02-19T18:30:46.570Z,4.30
2023-02-19T18:33:14.121Z,4.70
2023-02-19T18:35:41.412Z,4.00
2023-02-19T18:38:08.562Z,3.90
2023-02-19T18:40:35.534Z,4.00
2023-02-19T18:43:02.573Z,3.80
2023-02-19T18:45:30.076Z,4.20
2023-02-19T18:47:57.355Z,3.60
2023-02-19T18:50:24.438Z,5.40
2023-02-19T18:52:52.105Z,3.90
2023-02-19T18:55:19.722Z,4.20
2023-02-19T18:57:48.610Z,3.90
2023-02-19T19:00:23.856Z,4.30
2023-02-19T19:02:51.641Z,4.80
2023-02-19T19:05:23.145Z,4.60
2023-02-19T19:07:59.553Z,5.10
2023-02-19T19:10:27.067Z,5.20
2023-02-19T19:12:55.136Z,4.70
2023-02-19T19:15:23.325Z,4.70
2023-02-19T19:17:51.027Z,4.50
2023-02-19T19:20:20.166Z,4.20
2023-02-19T19:22:50.833Z,3.50
2023-02-19T19:25:18.796Z,4.00
2023-02-19T19:27:46.279Z,3.90
2023-02-19T19:30:13.756Z,4.70
2023-02-19T19:32:40.788Z,4.00
2023-02-19T19:35:08.285Z,3.80
2023-02-19T19:37:35.277Z,4.20
2023-02-19T19:40:04.080Z,3.80
2023-02-19T19:42:31.175Z,3.90
2023-02-19T19:44:58.328Z,3.90
2023-02-19T19:47:25.749Z,3.60
2023-02-19T19:49:53.313Z,3.40
2023-02-19T19:52:20.216Z,3.80
2023-02-19T19:54:47.408Z,4.80
2023-02-19T19:57:16.244Z,3.70
2023-02-19T19:59:43.222Z,4.40
2023-02-19T20:02:12.600Z,3.20
2023-02-19T20:04:39.645Z,4.60
2023-02-19T20:07:06.979Z,4.40
2023-02-19T20:09:34.438Z,4.10
2023-02-19T20:12:02.316Z,4.20
2023-02-19T20:14:29.245Z,3.50
2023-02-19T20:16:56.414Z,3.40
2023-02-19T20:19:24.637Z,3.10
2023-02-19T20:21:54.165Z,3.40
2023-02-19T20:24:24.574Z,3.30
2023-02-19T20:26:54.357Z,3.50
2023-02-19T20:31:52.240Z,3.30
2023-02-19T20:34:19.603Z,3.50
2023-02-19T20:36:48.343Z,3.60
2023-02-19T20:39:16.930Z,3.70
2023-02-19T20:41:49.814Z,3.10
2023-02-19T20:44:18.065Z,4.00
2023-02-19T20:46:48.078Z,3.90
2023-02-19T20:49:16.927Z,3.70
2023-02-19T20:51:50.119Z,4.40
2023-02-19T20:54:19.442Z,4.30
2023-02-19T20:56:53.180Z,3.50
2023-02-19T20:59:22.323Z,3.70
2023-02-19T21:01:49.871Z,4.20
2023-02-19T21:04:18.473Z,4.90
2023-02-19T21:06:46.895Z,4.30
2023-02-19T21:09:17.366Z,4.60
2023-02-19T21:11:44.763Z,3.90
2023-02-19T21:14:12.591Z,4.60
2023-02-19T21:16:39.591Z,5.00
2023-02-19T21:19:07.186Z,4.70
2023-02-19T21:21:35.671Z,4.90
2023-02-19T21:24:03.196Z,4.10
2023-02-19T21:26:36.152Z,3.90
2023-02-19T21:29:04.801Z,3.50
2023-02-19T21:31:39.069Z,4.60
2023-02-19T21:34:08.154Z,4.10
2023-02-19T21:36:36.207Z,3.80
2023-02-19T21:39:05.102Z,3.20
2023-02-19T21:41:32.050Z,3.80
2023-02-19T21:43:59.298Z,3.10
2023-02-19T21:46:27.191Z,3.90
2023-02-19T21:48:56.089Z,3.60
2023-02-19T21:51:29.975Z,3.60
2023-02-19T21:53:57.463Z,3.40
2023-02-19T21:56:26.588Z,3.50
2023-02-19T21:58:54.064Z,3.20
2023-02-19T22:01:29.866Z,2.90
2023-02-19T22:03:56.921Z,3.00
2023-02-19T22:06:29.608Z,3.40
2023-02-19T22:08:57.216Z,3.40
2023-02-19T22:11:24.572Z,3.00
2023-02-19T22:13:51.829Z,2.70
2023-02-19T22:16:19.291Z,2.60
2023-02-19T22:18:52.170Z,2.50
2023-02-19T22:21:20.866Z,3.60
2023-02-19T22:23:50.553Z,2.40
2023-02-19T22:26:22.714Z,3.20
2023-02-19T22:28:50.559Z,3.60
2023-02-19T22:31:19.941Z,3.00
2023-02-19T22:33:47.078Z,3.30
2023-02-19T22:36:20.402Z,3.20
2023-02-19T22:38:48.425Z,3.10
2023-02-19T22:41:17.238Z,4.10
2023-02-19T22:43:44.597Z,3.60
2023-02-19T22:46:23.719Z,3.40
2023-02-19T22:48:51.317Z,4.50
2023-02-19T22:51:21.548Z,3.70
2023-02-19T22:53:56.823Z,4.10
2023-02-19T22:56:27.327Z,4.40
2023-02-19T22:58:56.124Z,4.00
2023-02-19T23:01:23.991Z,4.60
2023-02-19T23:03:59.068Z,4.10
2023-02-19T23:06:32.043Z,4.30
2023-02-19T23:09:03.624Z,4.80
2023-02-19T23:11:34.228Z,4.10
2023-02-19T23:14:01.898Z,4.20
2023-02-19T23:16:28.992Z,4.30
2023-02-19T23:18:55.995Z,4.40
2023-02-19T23:21:23.332Z,3.90
2023-02-19T23:23:50.518Z,4.00
2023-02-19T23:26:19.048Z,4.30
2023-02-19T23:28:46.532Z,4.60
2023-02-19T23:31:14.645Z,3.50
2023-02-19T23:33:42.368Z,4.20
2023-02-19T23:36:11.274Z,3.70
2023-02-19T23:38:38.272Z,3.70
2023-02-19T23:41:10.933Z,3.60
2023-02-19T23:43:38.254Z,3.60
2023-02-19T23:46:06.004Z,4.20
2023-02-19T23:48:33.304Z,3.80
2023-02-19T23:51:00.593Z,3.60
2023-02-19T23:53:27.570Z,3.80
2023-02-19T23:55:54.424Z,4.80
2023-02-19T23:58:21.416Z,4.40
